createdAt,value
2019-02-23T00:01:22.796Z,9.50
2019-02-23T00:03:49.760Z,9.50
2019-02-23T00:06:29.025Z,9.50
2019-02-23T00:08:47.739Z,9.50
2019-02-23T00:11:14.771Z,9.50
2019-02-23T00:13:42.495Z,9.50
2019-02-23T00:16:09.643Z,9.50
2019-02-23T00:18:36.636Z,9.50
2019-02-23T00:21:03.771Z,9.50
2019-02-23T00:23:31.020Z,9.50
2019-02-23T00:25:58.167Z,9.50
2019-02-23T00:28:25.143Z,9.50
2019-02-23T00:30:52.163Z,9.50
2019-02-23T00:33:20.335Z,9.40
2019-02-23T00:35:47.495Z,9.30
2019-02-23T00:38:16.739Z,9.30
2019-02-23T00:40:44.587Z,9.20
2019-02-23T00:43:13.400Z,9.20
2019-02-23T00:45:40.740Z,9.20
2019-02-23T00:48:08.433Z,9.30
2019-02-23T00:50:35.601Z,9.30
2019-02-23T00:53:02.683Z,9.40
2019-02-23T00:55:29.675Z,9.40
2019-02-23T00:57:58.444Z,9.30
2019-02-23T01:00:25.528Z,9.30
2019-02-23T01:02:53.511Z,9.30
2019-02-23T01:05:20.536Z,9.20
2019-02-23T01:07:48.415Z,9.20
2019-02-23T01:10:19.475Z,9.20
2019-02-23T01:12:46.819Z,9.10
2019-02-23T01:15:15.840Z,9.00
2019-02-23T01:17:43.339Z,9.10
2019-02-23T01:20:12.300Z,9.10
2019-02-23T01:22:39.484Z,9.10
2019-02-23T01:25:07.955Z,9.10
2019-02-23T01:27:35.225Z,9.00
2019-02-23T01:30:03.656Z,9.10
2019-02-23T01:32:31.424Z,9.10
2019-02-23T01:34:58.504Z,9.00
2019-02-23T01:37:26.946Z,9.00
2019-02-23T01:39:53.811Z,9.10
2019-02-23T01:42:22.868Z,9.10
2019-02-23T01:44:50.938Z,9.10
2019-02-23T01:47:18.328Z,9.10
2019-02-23T01:49:45.223Z,9.20
2019-02-23T01:52:12.459Z,9.10
2019-02-23T01:54:39.784Z,9.10
2019-02-23T01:57:07.419Z,9.10
2019-02-23T01:59:34.890Z,9.10
2019-02-23T02:02:02.299Z,9.10
2019-02-23T02:04:31.131Z,9.10
2019-02-23T02:06:58.383Z,9.20
2019-02-23T02:09:25.847Z,9.20
2019-02-23T02:11:54.352Z,9.20
2019-02-23T02:14:21.871Z,9.20
2019-02-23T02:16:49.436Z,9.10
2019-02-23T02:19:16.936Z,9.10
2019-02-23T02:21:44.020Z,9.10
2019-02-23T02:24:12.399Z,9.10
2019-02-23T02:26:40.551Z,9.00
2019-02-23T02:29:07.847Z,9.00
2019-02-23T02:31:36.059Z,9.00
2019-02-23T02:34:09.184Z,9.00
2019-02-23T02:36:38.159Z,9.00
2019-02-23T02:39:08.424Z,9.00
2019-02-23T02:41:35.601Z,9.00
2019-02-23T02:44:03.429Z,8.90
2019-02-23T02:46:31.786Z,8.90
2019-02-23T02:48:59.286Z,8.90
2019-02-23T02:51:26.280Z,8.90
2019-02-23T02:53:53.399Z,8.90
2019-02-23T02:56:20.995Z,8.90
2019-02-23T02:58:48.432Z,8.80
2019-02-23T03:01:16.679Z,8.80
2019-02-23T03:03:44.423Z,8.90
2019-02-23T03:06:12.132Z,8.90
2019-02-23T03:08:40.207Z,8.80
2019-02-23T03:11:07.524Z,8.80
2019-02-23T03:13:34.864Z,8.80
2019-02-23T03:16:01.996Z,8.80
2019-02-23T03:18:29.029Z,8.80
2019-02-23T03:20:56.394Z,8.80
2019-02-23T03:23:23.926Z,8.70
2019-02-23T03:25:51.220Z,8.80
2019-02-23T03:28:19.879Z,8.70
2019-02-23T03:30:47.338Z,8.70
2019-02-23T03:33:16.078Z,8.70
2019-02-23T03:35:42.980Z,8.70
2019-02-23T03:38:10.126Z,8.70
2019-02-23T03:40:37.831Z,8.70
2019-02-23T03:43:05.239Z,8.70
2019-02-23T03:45:33.440Z,8.70
2019-02-23T03:48:02.179Z,8.60
2019-02-23T03:50:29.156Z,8.60
2019-02-23T03:52:56.147Z,8.60
2019-02-23T03:55:24.112Z,8.60
2019-02-23T03:57:51.513Z,8.60
2019-02-23T04:00:19.100Z,8.50
2019-02-23T04:02:47.000Z,8.60
2019-02-23T04:05:14.760Z,8.50
2019-02-23T04:07:41.749Z,8.50
2019-02-23T04:10:09.475Z,8.50
2019-02-23T04:12:36.604Z,8.40
2019-02-23T04:15:04.740Z,8.40
2019-02-23T04:17:32.939Z,8.30
2019-02-23T04:20:00.003Z,8.30
2019-02-23T04:22:28.438Z,8.30
2019-02-23T04:24:55.584Z,8.30
2019-02-23T04:27:22.732Z,8.20
2019-02-23T04:29:50.980Z,8.40
2019-02-23T04:32:18.620Z,8.30
2019-02-23T04:34:47.617Z,8.30
2019-02-23T04:37:16.128Z,8.30
2019-02-23T04:39:44.180Z,8.30
2019-02-23T04:42:11.343Z,8.20
2019-02-23T04:44:40.527Z,8.20
2019-02-23T04:47:08.155Z,8.20
2019-02-23T04:49:35.871Z,8.30
2019-02-23T04:52:03.308Z,8.30
2019-02-23T04:54:36.252Z,8.30
2019-02-23T04:57:05.181Z,8.30
2019-02-23T04:59:32.537Z,8.20
2019-02-23T05:01:59.407Z,8.20
2019-02-23T05:04:26.909Z,8.10
2019-02-23T05:06:53.856Z,8.10
2019-02-23T05:09:23.287Z,8.10
2019-02-23T05:11:51.711Z,8.10
2019-02-23T05:14:19.062Z,8.20
2019-02-23T05:16:46.443Z,8.20
2019-02-23T05:19:14.747Z,8.20
2019-02-23T05:21:42.684Z,8.20
2019-02-23T05:24:09.989Z,8.20
2019-02-23T05:26:37.028Z,8.20
2019-02-23T05:29:03.950Z,8.10
2019-02-23T05:31:32.242Z,8.10
2019-02-23T05:33:59.231Z,8.00
2019-02-23T05:36:26.313Z,8.10
2019-02-23T05:38:53.987Z,8.10
2019-02-23T05:41:21.248Z,8.10
2019-02-23T05:43:48.513Z,8.00
2019-02-23T05:46:15.785Z,8.00
2019-02-23T05:48:43.555Z,8.00
2019-02-23T05:51:11.391Z,8.00
2019-02-23T05:53:38.493Z,8.00
2019-02-23T05:56:07.403Z,8.00
2019-02-23T05:58:35.455Z,7.90
2019-02-23T06:01:03.752Z,7.90
2019-02-23T06:03:32.360Z,7.90
2019-02-23T06:06:00.772Z,7.90
2019-02-23T06:08:29.559Z,7.90
2019-02-23T06:10:57.507Z,7.90
2019-02-23T06:13:24.644Z,7.80
2019-02-23T06:15:51.676Z,7.80
2019-02-23T06:18:20.224Z,7.80
2019-02-23T06:20:47.586Z,7.80
2019-02-23T06:23:14.904Z,7.80
2019-02-23T06:25:43.363Z,7.70
2019-02-23T06:28:12.972Z,7.60
2019-02-23T06:30:41.169Z,7.60
2019-02-23T06:33:10.088Z,7.50
2019-02-23T06:35:37.099Z,7.50
2019-02-23T06:38:04.137Z,7.50
2019-02-23T06:40:31.292Z,7.60
2019-02-23T06:42:58.838Z,7.50
2019-02-23T06:45:27.781Z,7.50
2019-02-23T06:47:55.387Z,7.60
2019-02-23T06:50:23.359Z,7.50
2019-02-23T06:52:51.946Z,7.50
2019-02-23T06:55:19.779Z,7.50
2019-02-23T06:57:46.815Z,7.50
2019-02-23T07:00:15.930Z,7.50
2019-02-23T07:02:43.340Z,7.50
2019-02-23T07:05:10.736Z,7.50
2019-02-23T07:07:38.385Z,7.50
2019-02-23T07:10:07.205Z,7.50
2019-02-23T07:12:34.260Z,7.60
2019-02-23T07:15:02.091Z,7.60
2019-02-23T07:17:29.943Z,7.50
2019-02-23T07:19:56.950Z,7.50
2019-02-23T07:22:24.219Z,7.60
2019-02-23T07:24:51.635Z,7.70
2019-02-23T07:27:19.259Z,7.70
2019-02-23T07:29:48.507Z,7.80
2019-02-23T07:32:16.708Z,7.70
2019-02-23T07:34:45.608Z,7.70
2019-02-23T07:37:14.500Z,7.80
2019-02-23T07:39:42.004Z,7.80
2019-02-23T07:42:09.789Z,7.80
2019-02-23T07:44:37.268Z,7.80
2019-02-23T07:47:04.696Z,7.80
2019-02-23T07:49:32.308Z,7.80
2019-02-23T07:51:59.255Z,7.80
2019-02-23T07:54:26.267Z,7.80
2019-02-23T07:56:53.308Z,7.80
2019-02-23T07:59:20.583Z,7.80
2019-02-23T08:01:48.056Z,7.80
2019-02-23T08:04:15.238Z,7.90
2019-02-23T08:06:43.252Z,7.90
2019-02-23T08:09:11.371Z,8.00
2019-02-23T08:11:39.620Z,8.00
2019-02-23T08:14:07.649Z,8.00
2019-02-23T08:16:34.647Z,8.10
2019-02-23T08:19:01.763Z,8.10
2019-02-23T08:21:29.309Z,8.20
2019-02-23T08:23:58.287Z,8.30
2019-02-23T08:26:27.084Z,8.30
2019-02-23T08:28:54.211Z,8.40
2019-02-23T08:31:21.177Z,8.40
2019-02-23T08:33:50.285Z,8.50
2019-02-23T08:36:17.328Z,8.60
2019-02-23T08:38:44.741Z,8.70
2019-02-23T08:41:13.643Z,8.70
2019-02-23T08:43:40.539Z,8.70
2019-02-23T08:46:09.381Z,8.80
2019-02-23T08:48:36.999Z,8.70
2019-02-23T08:51:05.208Z,8.70
2019-02-23T08:53:33.043Z,8.90
2019-02-23T08:56:02.031Z,8.90
2019-02-23T08:58:29.583Z,9.00
2019-02-23T09:00:57.077Z,9.00
2019-02-23T09:03:24.580Z,9.00
2019-02-23T09:05:52.202Z,9.10
2019-02-23T09:08:20.565Z,9.10
2019-02-23T09:10:48.963Z,9.10
2019-02-23T09:13:16.051Z,9.20
2019-02-23T09:15:43.662Z,9.30
2019-02-23T09:18:11.033Z,9.40
2019-02-23T09:20:38.684Z,9.50
2019-02-23T09:23:06.471Z,9.50
2019-02-23T09:25:33.428Z,9.50
2019-02-23T09:28:01.530Z,9.60
2019-02-23T09:30:29.063Z,9.60
2019-02-23T09:32:55.917Z,9.60
2019-02-23T09:35:23.055Z,9.70
2019-02-23T09:37:50.408Z,9.70
2019-02-23T09:40:17.927Z,9.70
2019-02-23T09:42:45.036Z,9.70
2019-02-23T09:45:12.235Z,9.80
2019-02-23T09:47:40.722Z,9.80
2019-02-23T09:50:07.863Z,9.90
2019-02-23T09:52:35.556Z,9.80
2019-02-23T09:55:02.887Z,10.10
2019-02-23T09:57:30.880Z,10.00
2019-02-23T10:00:00.094Z,10.00
2019-02-23T10:02:27.890Z,10.10
2019-02-23T10:04:56.185Z,10.10
2019-02-23T10:07:23.211Z,10.20
2019-02-23T10:09:50.203Z,10.20
2019-02-23T10:12:17.148Z,10.20
2019-02-23T10:14:45.742Z,10.10
2019-02-23T10:17:14.067Z,10.20
2019-02-23T10:19:41.951Z,10.20
2019-02-23T10:22:09.571Z,10.20
2019-02-23T10:24:37.331Z,10.30
2019-02-23T10:27:05.275Z,10.40
2019-02-23T10:29:32.584Z,10.40
2019-02-23T10:31:59.711Z,10.40
2019-02-23T10:34:27.144Z,10.50
2019-02-23T10:36:54.290Z,10.40
2019-02-23T10:39:21.858Z,10.50
2019-02-23T10:41:48.815Z,10.60
2019-02-23T10:44:17.000Z,10.60
2019-02-23T10:46:45.248Z,10.60
2019-02-23T10:49:12.472Z,10.60
2019-02-23T10:51:39.891Z,10.60
2019-02-23T10:54:07.348Z,10.60
2019-02-23T10:56:34.495Z,10.70
2019-02-23T10:59:02.339Z,10.80
2019-02-23T11:01:29.647Z,10.80
2019-02-23T11:03:56.640Z,10.90
2019-02-23T11:06:23.743Z,10.90
2019-02-23T11:08:50.904Z,11.00
2019-02-23T11:11:18.156Z,11.00
2019-02-23T11:13:46.356Z,11.00
2019-02-23T11:16:14.115Z,11.00
2019-02-23T11:18:41.340Z,11.00
2019-02-23T11:21:08.967Z,11.00
2019-02-23T11:23:44.271Z,11.00
2019-02-23T11:26:07.184Z,10.90
2019-02-23T11:28:34.945Z,11.00
2019-02-23T11:31:02.035Z,11.10
2019-02-23T11:33:29.807Z,11.00
2019-02-23T11:35:57.055Z,11.00
2019-02-23T11:38:24.168Z,11.10
2019-02-23T11:40:51.858Z,11.10
2019-02-23T11:43:19.195Z,11.10
2019-02-23T11:45:46.287Z,11.10
2019-02-23T11:48:13.384Z,11.20
2019-02-23T11:50:40.703Z,11.20
2019-02-23T11:53:07.803Z,11.20
2019-02-23T11:55:36.000Z,11.20
2019-02-23T11:58:04.099Z,11.20
2019-02-23T12:00:32.447Z,11.20
2019-02-23T12:02:59.787Z,11.20
2019-02-23T12:05:27.421Z,11.30
2019-02-23T12:07:55.324Z,11.30
2019-02-23T12:10:22.441Z,11.30
2019-02-23T12:12:49.923Z,11.30
2019-02-23T12:15:17.083Z,11.30
2019-02-23T12:17:43.946Z,11.20
2019-02-23T12:20:11.047Z,11.20
2019-02-23T12:22:39.454Z,11.20
2019-02-23T12:25:07.604Z,11.20
2019-02-23T12:27:34.611Z,11.20
2019-02-23T12:30:01.741Z,11.30
2019-02-23T12:32:29.075Z,11.20
2019-02-23T12:34:56.483Z,11.20
2019-02-23T12:37:23.516Z,11.20
2019-02-23T12:39:52.539Z,11.20
2019-02-23T12:42:19.507Z,11.20
2019-02-23T12:44:46.863Z,11.10
2019-02-23T12:47:14.651Z,11.10
2019-02-23T12:49:41.964Z,11.10
2019-02-23T12:52:09.736Z,11.30
2019-02-23T12:54:36.824Z,11.30
2019-02-23T12:57:05.282Z,11.20
2019-02-23T12:59:34.316Z,11.20
2019-02-23T13:02:01.318Z,11.20
2019-02-23T13:04:28.311Z,11.30
2019-02-23T13:06:56.776Z,11.30
2019-02-23T13:09:28.539Z,11.20
2019-02-23T13:11:59.971Z,11.20
2019-02-23T13:14:38.612Z,11.20
2019-02-23T13:17:26.907Z,11.20
2019-02-23T13:20:24.718Z,11.30
2019-02-23T13:23:39.139Z,11.30
2019-02-23T13:26:56.704Z,11.30
2019-02-23T13:29:54.363Z,11.30
2019-02-23T13:32:51.191Z,11.30
2019-02-23T13:36:04.415Z,11.30
2019-02-23T13:38:58.924Z,11.40
2019-02-23T13:45:14.043Z,11.30
2019-02-23T13:48:24.763Z,11.30
2019-02-23T13:51:15.724Z,11.30
2019-02-23T13:54:39.110Z,11.30
2019-02-23T13:57:25.696Z,11.30
2019-02-23T14:01:01.985Z,11.40
2019-02-23T14:04:06.547Z,11.40
2019-02-23T14:06:59.512Z,11.40
2019-02-23T14:10:19.403Z,11.40
2019-02-23T14:13:14.040Z,11.40
2019-02-23T14:16:18.661Z,11.40
2019-02-23T14:19:19.411Z,11.40
2019-02-23T14:22:35.141Z,11.30
2019-02-23T14:25:52.916Z,11.30
2019-02-23T14:28:48.019Z,11.30
2019-02-23T14:32:00.668Z,11.30
2019-02-23T14:35:06.962Z,11.30
2019-02-23T14:38:03.914Z,11.30
2019-02-23T14:40:45.445Z,11.30
2019-02-23T14:43:38.878Z,11.30
2019-02-23T14:46:23.452Z,11.30
2019-02-23T14:49:33.004Z,11.30
2019-02-23T14:52:18.390Z,11.30
2019-02-23T14:55:06.900Z,11.30
2019-02-23T14:58:12.596Z,11.30
2019-02-23T15:01:08.664Z,11.30
2019-02-23T15:03:57.850Z,11.30
2019-02-23T15:07:04.063Z,11.20
2019-02-23T15:09:45.944Z,11.20
2019-02-23T15:12:52.079Z,11.20
2019-02-23T15:15:29.388Z,11.20
2019-02-23T15:18:54.991Z,11.10
2019-02-23T15:21:53.582Z,11.00
2019-02-23T15:24:49.092Z,11.00
2019-02-23T15:27:40.011Z,11.00
2019-02-23T15:30:32.384Z,10.90
2019-02-23T15:33:21.343Z,10.90
2019-02-23T15:36:25.731Z,10.90
2019-02-23T15:39:23.093Z,10.90
2019-02-23T15:42:33.632Z,10.90
2019-02-23T15:45:56.029Z,10.80
2019-02-23T15:48:42.854Z,10.70
2019-02-23T15:51:11.280Z,10.70
2019-02-23T15:53:40.278Z,10.70
2019-02-23T15:56:08.784Z,10.70
2019-02-23T15:58:36.016Z,10.70
2019-02-23T16:01:03.503Z,10.60
2019-02-23T16:03:31.050Z,10.60
2019-02-23T16:05:58.068Z,10.60
2019-02-23T16:08:25.215Z,10.60
2019-02-23T16:10:52.652Z,10.60
2019-02-23T16:13:19.796Z,10.50
2019-02-23T16:15:46.879Z,10.50
2019-02-23T16:18:14.063Z,10.50
2019-02-23T16:20:41.164Z,10.40
2019-02-23T16:23:09.087Z,10.40
2019-02-23T16:25:38.570Z,10.40
2019-02-23T16:28:05.197Z,10.40
2019-02-23T16:30:32.247Z,10.30
2019-02-23T16:32:59.344Z,10.20
2019-02-23T16:35:27.729Z,10.20
2019-02-23T16:37:55.208Z,10.20
2019-02-23T16:40:22.213Z,10.10
2019-02-23T16:42:49.064Z,10.10
2019-02-23T16:45:16.103Z,10.00
2019-02-23T16:47:45.261Z,10.00
2019-02-23T16:50:13.052Z,10.10
2019-02-23T16:52:40.027Z,10.10
2019-02-23T16:55:07.851Z,10.10
2019-02-23T16:57:35.302Z,10.00
2019-02-23T17:00:03.875Z,9.90
2019-02-23T17:02:31.199Z,9.90
2019-02-23T17:04:58.763Z,9.80
2019-02-23T17:07:26.929Z,9.90
2019-02-23T17:09:55.868Z,9.80
2019-02-23T17:12:24.728Z,9.80
2019-02-23T17:14:52.992Z,9.70
2019-02-23T17:17:20.451Z,9.70
2019-02-23T17:19:47.935Z,9.70
2019-02-23T17:22:15.079Z,9.60
2019-02-23T17:24:42.584Z,9.50
2019-02-23T17:27:10.607Z,9.50
2019-02-23T17:29:37.499Z,9.40
2019-02-23T17:32:04.359Z,9.50
2019-02-23T17:34:31.548Z,9.40
2019-02-23T17:37:00.992Z,9.40
2019-02-23T17:39:28.320Z,9.40
2019-02-23T17:41:55.617Z,9.30
2019-02-23T17:44:22.512Z,9.30
2019-02-23T17:46:49.500Z,9.40
2019-02-23T17:49:17.613Z,9.20
2019-02-23T17:51:44.840Z,9.20
2019-02-23T17:54:12.140Z,9.20
2019-02-23T17:56:41.039Z,9.10
2019-02-23T17:59:08.364Z,9.10
2019-02-23T18:01:36.679Z,9.10
2019-02-23T18:04:05.023Z,9.10
2019-02-23T18:06:32.765Z,9.10
2019-02-23T18:09:02.046Z,9.00
2019-02-23T18:11:29.340Z,9.10
2019-02-23T18:13:56.719Z,9.00
2019-02-23T18:16:23.855Z,9.00
2019-02-23T18:18:52.032Z,9.10
2019-02-23T18:21:20.260Z,9.00
2019-02-23T18:23:47.375Z,9.00
2019-02-23T18:26:20.990Z,8.90
2019-02-23T18:28:43.747Z,8.80
2019-02-23T18:31:11.293Z,8.80
2019-02-23T18:33:38.361Z,8.70
2019-02-23T18:36:06.083Z,8.70
2019-02-23T18:38:33.087Z,8.80
2019-02-23T18:41:00.879Z,8.80
2019-02-23T18:43:27.939Z,8.80
2019-02-23T18:45:55.391Z,8.90
2019-02-23T18:48:22.615Z,8.70
2019-02-23T18:50:50.076Z,8.60
2019-02-23T18:53:18.100Z,8.80
2019-02-23T18:55:45.103Z,8.80
2019-02-23T18:58:12.127Z,8.70
2019-02-23T19:00:39.663Z,8.70
2019-02-23T19:03:08.486Z,8.70
2019-02-23T19:05:35.615Z,8.60
2019-02-23T19:08:02.699Z,8.50
2019-02-23T19:10:30.409Z,8.60
2019-02-23T19:12:57.619Z,8.50
2019-02-23T19:15:24.907Z,8.70
2019-02-23T19:17:51.771Z,8.60
2019-02-23T19:20:19.880Z,8.70
2019-02-23T19:22:47.153Z,8.50
2019-02-23T19:25:14.283Z,8.60
2019-02-23T19:27:41.636Z,8.60
2019-02-23T19:30:09.896Z,8.50
2019-02-23T19:32:37.539Z,8.50
2019-02-23T19:35:05.087Z,8.40
2019-02-23T19:37:32.654Z,8.40
2019-02-23T19:39:59.931Z,8.50
2019-02-23T19:42:26.965Z,8.50
2019-02-23T19:44:53.963Z,8.40
2019-02-23T19:47:24.831Z,8.40
2019-02-23T19:49:55.488Z,8.50
2019-02-23T19:52:23.470Z,8.50
2019-02-23T19:54:50.489Z,8.40
2019-02-23T19:57:17.844Z,8.30
2019-02-23T19:59:45.605Z,8.20
2019-02-23T20:02:13.251Z,8.20
2019-02-23T20:04:40.517Z,8.30
2019-02-23T20:07:07.720Z,8.20
2019-02-23T20:09:34.699Z,8.30
2019-02-23T20:12:01.679Z,8.20
2019-02-23T20:14:29.133Z,8.30
2019-02-23T20:16:56.745Z,8.30
2019-02-23T20:19:23.728Z,8.40
2019-02-23T20:21:50.800Z,8.40
2019-02-23T20:24:17.747Z,8.20
2019-02-23T20:26:45.027Z,8.10
2019-02-23T20:29:12.411Z,8.00
2019-02-23T20:31:39.839Z,8.10
2019-02-23T20:34:07.059Z,8.10
2019-02-23T20:36:34.749Z,8.00
2019-02-23T20:39:04.509Z,8.00
2019-02-23T20:41:31.615Z,8.00
2019-02-23T20:43:58.864Z,8.00
2019-02-23T20:46:26.606Z,7.90
2019-02-23T20:48:53.821Z,7.80
2019-02-23T20:51:22.159Z,8.00
2019-02-23T20:53:49.867Z,8.10
2019-02-23T20:56:19.103Z,8.00
2019-02-23T20:58:46.639Z,8.00
2019-02-23T21:01:14.116Z,7.80
2019-02-23T21:03:41.288Z,7.80
2019-02-23T21:06:08.315Z,8.00
2019-02-23T21:08:35.715Z,7.90
2019-02-23T21:11:03.119Z,7.80
2019-02-23T21:13:30.735Z,7.80
2019-02-23T21:15:57.700Z,7.90
2019-02-23T21:18:25.011Z,7.90
2019-02-23T21:20:52.208Z,7.90
2019-02-23T21:23:20.739Z,7.80
2019-02-23T21:25:49.880Z,7.70
2019-02-23T21:28:18.271Z,7.70
2019-02-23T21:30:47.261Z,7.80
2019-02-23T21:33:14.271Z,7.80
2019-02-23T21:35:41.499Z,7.80
2019-02-23T21:38:08.828Z,7.80
2019-02-23T21:40:36.107Z,7.60
2019-02-23T21:43:03.877Z,7.50
2019-02-23T21:45:30.893Z,7.60
2019-02-23T21:47:58.322Z,7.80
2019-02-23T21:50:25.640Z,7.80
2019-02-23T21:52:53.795Z,7.70
2019-02-23T21:55:20.817Z,7.50
2019-02-23T21:57:48.921Z,7.40
2019-02-23T22:00:16.730Z,7.40
2019-02-23T22:02:43.816Z,7.50
2019-02-23T22:05:12.685Z,7.60
2019-02-23T22:07:40.130Z,7.70
2019-02-23T22:10:07.217Z,7.50
2019-02-23T22:12:34.251Z,7.60
2019-02-23T22:15:01.497Z,7.60
2019-02-23T22:17:28.391Z,7.40
2019-02-23T22:19:55.970Z,7.50
2019-02-23T22:22:23.979Z,7.60
2019-02-23T22:24:51.647Z,7.60
2019-02-23T22:27:19.377Z,7.50
2019-02-23T22:29:47.125Z,7.80
2019-02-23T22:32:14.545Z,7.50
2019-02-23T22:34:43.569Z,7.50
2019-02-23T22:37:10.625Z,7.40
2019-02-23T22:39:37.751Z,7.50
2019-02-23T22:42:06.759Z,7.50
2019-02-23T22:44:34.381Z,7.60
2019-02-23T22:47:03.644Z,7.60
2019-02-23T22:49:30.759Z,7.40
2019-02-23T22:51:58.253Z,7.50
2019-02-23T22:54:26.399Z,7.60
2019-02-23T22:56:55.519Z,7.60
2019-02-23T22:59:22.520Z,7.50
2019-02-23T23:01:51.296Z,7.40
2019-02-23T23:04:19.583Z,7.40
2019-02-23T23:06:47.923Z,7.50
2019-02-23T23:09:17.503Z,7.50
2019-02-23T23:11:44.496Z,7.30
2019-02-23T23:14:12.232Z,7.40
2019-02-23T23:16:39.185Z,7.50
2019-02-23T23:19:06.304Z,7.60
2019-02-23T23:21:33.511Z,7.40
2019-02-23T23:24:01.187Z,7.30
2019-02-23T23:26:29.352Z,7.30
2019-02-23T23:28:56.730Z,7.40
2019-02-23T23:31:23.851Z,7.40
2019-02-23T23:33:50.919Z,7.30
2019-02-23T23:36:18.553Z,7.40
2019-02-23T23:38:46.231Z,7.40
2019-02-23T23:41:13.149Z,7.40
2019-02-23T23:43:40.528Z,7.50
2019-02-23T23:46:08.759Z,7.40
2019-02-23T23:48:35.965Z,7.30
2019-02-23T23:51:02.955Z,7.20
2019-02-23T23:53:29.939Z,7.30
2019-02-23T23:55:56.899Z,7.30
2019-02-23T23:58:23.912Z,7.20
